Putnamville, Indiana
Current Conditions -  °F | °C
As of 3:55 PM on Tuesday 21 Oct 2014 (Local Time) from K4I7 Reporting Station
Scattered Clouds Scattered Clouds  
Wind Chill: 55°   Ceiling: Unl
Heat Index: 55°   Visibility: 10mi
Dew Point: 41°   Wind: 10mph
Humidity: 58%   Direction: 340°NNW
Pressure: 30.11"   Gusts: 17mph
Location:  39.57°N, 86.87°W
Report Text: K4I7 211955Z AUTO 34009G15KT 10SM SCT048 SCT050 13/05 A3011 RMK AO2
Loading
Personal Weather Stations






























Interactive Weather Map
Tropical Storm Tracking
New forecast layout! Learn more

10-Day Weather Forecast

Advertisements
Track Severe Weather on mobile